createdAt,value
2018-12-23T00:01:51.269Z,8.31
2018-12-23T00:04:28.102Z,8.21
2018-12-23T00:07:02.870Z,8.24
2018-12-23T00:09:43.470Z,8.22
2018-12-23T00:12:18.371Z,8.18
2018-12-23T00:14:55.906Z,8.15
2018-12-23T00:17:31.875Z,8.07
2018-12-23T00:20:09.059Z,8.17
2018-12-23T00:22:44.069Z,8.10
2018-12-23T00:28:17.259Z,7.90
2018-12-23T00:31:06.247Z,7.82
2018-12-23T00:33:46.348Z,7.71
2018-12-23T00:36:27.473Z,7.62
2018-12-23T00:39:10.470Z,7.53
2018-12-23T00:41:57.643Z,7.52
2018-12-23T00:47:38.434Z,7.25
2018-12-23T00:53:13.075Z,7.12
2018-12-23T00:55:51.468Z,7.12
2018-12-23T00:58:37.954Z,7.06
2018-12-23T01:01:17.143Z,7.07
2018-12-23T01:04:05.394Z,7.14
2018-12-23T01:06:54.359Z,7.14
2018-12-23T01:09:45.588Z,7.19
2018-12-23T01:12:21.075Z,7.25
2018-12-23T01:14:55.659Z,7.26
2018-12-23T01:17:30.491Z,7.22
2018-12-23T01:20:09.851Z,7.21
2018-12-23T01:22:47.476Z,7.26
2018-12-23T01:25:30.318Z,7.32
2018-12-23T01:28:06.802Z,7.29
2018-12-23T01:30:57.435Z,7.36
2018-12-23T01:36:31.747Z,7.31
2018-12-23T01:39:07.611Z,7.30
2018-12-23T01:41:47.774Z,7.25
2018-12-23T01:44:26.678Z,7.27
2018-12-23T01:47:01.562Z,7.35
2018-12-23T01:49:41.871Z,7.33
2018-12-23T01:55:16.487Z,7.39
2018-12-23T01:57:56.902Z,7.41
2018-12-23T02:00:45.838Z,7.38
2018-12-23T02:03:23.662Z,7.42
2018-12-23T02:06:04.059Z,7.42
2018-12-23T02:08:38.705Z,7.38
2018-12-23T02:11:26.156Z,7.37
2018-12-23T02:14:22.967Z,7.40
2018-12-23T02:16:58.303Z,7.41
2018-12-23T02:19:38.978Z,7.41
2018-12-23T02:22:26.396Z,7.40
2018-12-23T02:25:02.736Z,7.41
2018-12-23T02:27:37.490Z,7.43
2018-12-23T02:30:12.559Z,7.37
2018-12-23T02:35:43.827Z,7.37
2018-12-23T02:38:19.102Z,7.39
2018-12-23T02:43:50.763Z,7.36
2018-12-23T02:46:47.811Z,7.40
2018-12-23T02:52:17.279Z,7.47
2018-12-23T02:54:54.763Z,7.44
2018-12-23T02:57:30.994Z,7.36
2018-12-23T03:00:07.078Z,7.34
2018-12-23T03:02:47.991Z,7.40
2018-12-23T03:05:28.662Z,7.31
2018-12-23T03:10:59.599Z,7.25
2018-12-23T03:13:47.799Z,7.30
2018-12-23T03:16:22.712Z,7.31
2018-12-23T03:22:06.708Z,7.24
2018-12-23T03:24:50.866Z,7.23
2018-12-23T03:27:25.292Z,7.18
2018-12-23T03:38:54.163Z,7.14
2018-12-23T03:44:25.919Z,7.24
2018-12-23T03:47:13.145Z,7.17
2018-12-23T03:52:44.215Z,7.21
2018-12-23T03:55:18.700Z,7.29
2018-12-23T03:57:53.459Z,7.35
2018-12-23T04:00:28.264Z,7.29
2018-12-23T04:03:03.231Z,7.33
2018-12-23T04:08:38.774Z,7.31
2018-12-23T04:11:13.802Z,7.29
2018-12-23T04:16:44.212Z,7.35
2018-12-23T04:19:32.566Z,7.27
2018-12-23T04:22:07.358Z,7.27
2018-12-23T04:25:00.676Z,7.24
2018-12-23T04:27:35.573Z,7.30
2018-12-23T04:30:10.662Z,7.32
2018-12-23T04:32:45.039Z,7.26
2018-12-23T04:35:34.058Z,7.31
2018-12-23T04:38:12.284Z,7.29
2018-12-23T04:41:05.543Z,7.28
2018-12-23T04:43:59.352Z,7.29
2018-12-23T04:46:34.736Z,7.25
2018-12-23T04:49:09.293Z,7.26
2018-12-23T04:51:44.046Z,7.30
2018-12-23T04:54:18.576Z,7.32
2018-12-23T04:56:52.979Z,7.31
2018-12-23T04:59:27.468Z,7.35
2018-12-23T05:02:07.894Z,7.31
2018-12-23T05:04:46.466Z,7.26
2018-12-23T05:07:26.414Z,7.30
2018-12-23T05:10:01.085Z,7.26
2018-12-23T05:12:50.572Z,7.30
2018-12-23T05:15:26.206Z,7.26
2018-12-23T05:18:06.727Z,7.26
2018-12-23T05:20:45.348Z,7.25
2018-12-23T05:23:20.359Z,7.28
2018-12-23T05:25:55.047Z,7.26
2018-12-23T05:28:31.461Z,7.29
2018-12-23T05:31:18.815Z,7.30
2018-12-23T05:33:53.332Z,7.31
2018-12-23T05:36:33.984Z,7.33
2018-12-23T05:42:07.220Z,7.30
2018-12-23T05:44:41.689Z,7.36
2018-12-23T05:50:24.829Z,7.39
2018-12-23T05:52:59.588Z,7.40
2018-12-23T05:55:39.295Z,7.47
2018-12-23T05:58:16.242Z,7.51
2018-12-23T06:00:57.112Z,7.36
2018-12-23T06:03:31.618Z,7.42
2018-12-23T06:06:25.201Z,7.44
2018-12-23T06:09:15.183Z,7.53
2018-12-23T06:14:46.419Z,7.40
2018-12-23T06:17:21.227Z,7.37
2018-12-23T06:20:12.611Z,7.31
2018-12-23T06:22:59.816Z,7.32
2018-12-23T06:25:38.635Z,7.44
2018-12-23T06:28:14.535Z,7.40
2018-12-23T06:30:51.130Z,7.44
2018-12-23T06:33:26.811Z,7.59
2018-12-23T06:36:02.253Z,7.64
2018-12-23T06:38:40.437Z,7.57
2018-12-23T06:41:15.595Z,7.64
2018-12-23T06:43:50.050Z,7.51
2018-12-23T06:49:21.004Z,7.49
2018-12-23T06:51:56.997Z,7.49
2018-12-23T06:54:31.615Z,7.44
2018-12-23T06:57:07.595Z,7.44
2018-12-23T07:02:56.932Z,7.37
2018-12-23T07:05:33.947Z,7.35
2018-12-23T07:11:04.482Z,7.35
2018-12-23T07:16:36.879Z,7.43
2018-12-23T07:22:13.546Z,7.46
2018-12-23T07:24:48.307Z,7.53
2018-12-23T07:27:22.970Z,7.45
2018-12-23T07:29:57.453Z,7.39
2018-12-23T07:32:42.951Z,7.34
2018-12-23T07:35:18.035Z,7.30
2018-12-23T07:37:56.299Z,7.41
2018-12-23T07:43:30.879Z,7.30
2018-12-23T07:46:06.439Z,7.43
2018-12-23T07:54:44.627Z,7.24
2018-12-23T07:57:23.732Z,7.23
2018-12-23T07:59:58.544Z,7.27
2018-12-23T08:02:39.146Z,7.22
2018-12-23T08:05:27.475Z,7.12
2018-12-23T08:11:10.826Z,7.52
2018-12-23T08:13:51.732Z,7.50
2018-12-23T08:16:44.849Z,7.48
2018-12-23T08:19:29.413Z,7.71
2018-12-23T08:22:04.681Z,7.65
2018-12-23T08:24:39.477Z,7.72
2018-12-23T08:27:20.273Z,7.75
2018-12-23T08:29:58.310Z,7.85
2018-12-23T08:32:32.799Z,7.73
2018-12-23T08:35:17.281Z,7.65
2018-12-23T08:37:58.187Z,7.68
2018-12-23T08:40:40.326Z,7.71
2018-12-23T08:43:27.495Z,7.77
2018-12-23T08:46:09.782Z,7.77
2018-12-23T08:48:59.682Z,7.80
2018-12-23T08:51:34.148Z,7.65
2018-12-23T08:54:12.366Z,7.73
2018-12-23T08:57:00.063Z,7.86
2018-12-23T08:59:34.735Z,7.85
2018-12-23T09:02:10.943Z,7.76
2018-12-23T09:04:46.120Z,7.79
2018-12-23T09:07:25.210Z,7.88
2018-12-23T09:10:06.745Z,7.92
2018-12-23T09:12:44.877Z,7.89
2018-12-23T09:15:23.347Z,8.00
2018-12-23T09:18:19.240Z,8.16
2018-12-23T09:20:53.230Z,8.14
2018-12-23T09:23:28.071Z,8.09
2018-12-23T09:26:09.764Z,8.22
2018-12-23T09:28:48.390Z,8.27
2018-12-23T09:31:26.862Z,8.43
2018-12-23T09:34:05.622Z,8.52
2018-12-23T09:36:51.217Z,8.55
2018-12-23T09:42:28.558Z,8.71
2018-12-23T09:51:09.880Z,8.95
2018-12-23T09:53:51.175Z,9.15
2018-12-23T09:56:25.819Z,9.25
2018-12-23T09:59:02.448Z,9.36
2018-12-23T10:01:37.150Z,9.49
2018-12-23T10:04:11.658Z,9.61
2018-12-23T10:06:46.640Z,9.66
2018-12-23T10:09:27.015Z,9.74
2018-12-23T10:15:14.136Z,9.61
2018-12-23T10:18:07.415Z,9.69
2018-12-23T10:20:48.255Z,9.70
2018-12-23T10:23:23.358Z,9.57
2018-12-23T10:25:58.523Z,9.63
2018-12-23T10:28:36.563Z,9.78
2018-12-23T10:31:11.055Z,9.87
2018-12-23T10:33:46.011Z,9.92
2018-12-23T10:36:20.595Z,10.00
2018-12-23T10:38:54.974Z,10.16
2018-12-23T10:41:29.862Z,9.88
2018-12-23T10:44:04.792Z,9.87
2018-12-23T10:46:39.436Z,9.92
2018-12-23T10:49:14.560Z,9.94
2018-12-23T10:51:51.426Z,9.83
2018-12-23T10:54:26.249Z,9.89
2018-12-23T10:57:05.450Z,9.84
2018-12-23T10:59:40.195Z,10.03
2018-12-23T11:02:14.670Z,10.00
2018-12-23T11:04:49.499Z,10.17
2018-12-23T11:07:30.582Z,10.35
2018-12-23T11:10:09.775Z,10.09
2018-12-23T11:12:50.064Z,10.05
2018-12-23T11:15:27.390Z,9.90
2018-12-23T11:18:08.249Z,9.95
2018-12-23T11:20:54.366Z,9.98
2018-12-23T11:23:31.902Z,10.15
2018-12-23T11:26:27.562Z,10.22
2018-12-23T11:29:14.041Z,10.28
2018-12-23T11:31:50.096Z,10.32
2018-12-23T11:37:33.907Z,10.25
2018-12-23T11:40:14.452Z,10.23
2018-12-23T11:42:49.069Z,10.34
2018-12-23T11:48:22.851Z,10.27
2018-12-23T11:51:09.261Z,10.25
2018-12-23T11:53:55.890Z,10.16
2018-12-23T11:56:30.720Z,10.02
2018-12-23T11:59:05.723Z,9.92
2018-12-23T12:01:49.513Z,9.99
2018-12-23T12:04:30.193Z,10.01
2018-12-23T12:07:14.845Z,10.03
2018-12-23T12:09:50.568Z,10.10
2018-12-23T12:12:25.267Z,10.10
2018-12-23T12:14:59.767Z,10.06
2018-12-23T12:17:34.319Z,10.03
2018-12-23T12:20:08.862Z,10.04
2018-12-23T12:22:43.582Z,9.93
2018-12-23T12:25:18.967Z,10.01
2018-12-23T12:27:54.616Z,10.02
2018-12-23T12:30:29.319Z,10.03
2018-12-23T12:33:04.395Z,10.07
2018-12-23T12:35:39.027Z,10.02
2018-12-23T12:38:13.658Z,10.08
2018-12-23T12:40:48.218Z,9.96
2018-12-23T12:43:22.971Z,9.89
2018-12-23T12:46:00.657Z,10.02
2018-12-23T12:48:34.555Z,9.96
2018-12-23T12:51:09.110Z,9.99
2018-12-23T12:53:43.846Z,9.98
2018-12-23T12:56:18.843Z,9.95
2018-12-23T12:58:53.431Z,9.91
2018-12-23T13:01:28.400Z,10.02
2018-12-23T13:04:06.898Z,10.00
2018-12-23T13:06:41.342Z,9.96
2018-12-23T13:09:16.534Z,9.94
2018-12-23T13:11:51.665Z,9.87
2018-12-23T13:14:30.907Z,9.76
2018-12-23T13:17:06.745Z,9.75
2018-12-23T13:19:41.834Z,9.69
2018-12-23T13:22:18.440Z,9.72
2018-12-23T13:24:59.302Z,9.70
2018-12-23T13:27:37.091Z,9.70
2018-12-23T13:30:11.791Z,9.56
2018-12-23T13:32:48.170Z,9.56
2018-12-23T13:35:37.313Z,9.61
2018-12-23T13:38:28.290Z,9.64
2018-12-23T13:41:14.551Z,9.56
2018-12-23T13:44:08.554Z,9.60
2018-12-23T13:48:59.453Z,9.61
2018-12-23T13:52:01.517Z,9.32
2018-12-23T13:54:50.377Z,9.26
2018-12-23T14:00:44.872Z,9.20
2018-12-23T14:03:36.578Z,9.18
2018-12-23T14:06:28.739Z,9.07
2018-12-23T14:09:32.359Z,8.96
2018-12-23T14:12:12.643Z,8.88
2018-12-23T14:14:47.686Z,8.77
2018-12-23T14:17:22.546Z,8.74
2018-12-23T14:19:58.087Z,8.62
2018-12-23T14:22:32.495Z,8.54
2018-12-23T14:25:07.577Z,8.41
2018-12-23T14:27:41.883Z,8.23
2018-12-23T14:30:16.892Z,8.26
2018-12-23T14:32:51.700Z,8.27
2018-12-23T14:35:26.388Z,8.16
2018-12-23T14:38:02.399Z,8.10
2018-12-23T14:40:37.225Z,8.02
2018-12-23T14:43:11.792Z,7.96
2018-12-23T14:45:46.630Z,8.02
2018-12-23T14:48:21.156Z,7.96
2018-12-23T14:50:55.916Z,7.79
2018-12-23T14:53:30.922Z,7.85
2018-12-23T14:56:06.128Z,7.81
2018-12-23T14:58:42.255Z,7.75
2018-12-23T15:01:16.727Z,7.68
2018-12-23T15:03:51.773Z,7.62
2018-12-23T15:06:26.684Z,7.73
2018-12-23T15:09:02.408Z,7.81
2018-12-23T15:11:37.415Z,7.83
2018-12-23T15:14:12.639Z,7.83
2018-12-23T15:16:47.260Z,7.70
2018-12-23T15:19:22.254Z,7.58
2018-12-23T15:22:01.790Z,7.46
2018-12-23T15:24:36.732Z,7.44
2018-12-23T15:27:11.697Z,7.47
2018-12-23T15:29:47.590Z,7.22
2018-12-23T15:32:22.078Z,7.42
2018-12-23T15:34:56.475Z,7.34
2018-12-23T15:37:30.921Z,7.28
2018-12-23T15:40:06.750Z,7.37
2018-12-23T15:42:41.299Z,7.19
2018-12-23T15:45:15.747Z,7.15
2018-12-23T15:47:50.640Z,7.23
2018-12-23T15:50:25.799Z,7.21
2018-12-23T15:53:00.931Z,7.16
2018-12-23T15:55:35.375Z,7.25
2018-12-23T15:58:10.066Z,7.09
2018-12-23T16:00:44.936Z,7.08
2018-12-23T16:03:19.586Z,7.10
2018-12-23T16:05:54.322Z,7.12
2018-12-23T16:08:28.850Z,7.14
2018-12-23T16:11:04.818Z,7.15
2018-12-23T16:13:39.622Z,7.11
2018-12-23T16:16:14.155Z,7.22
2018-12-23T16:18:49.350Z,7.12
2018-12-23T16:21:23.838Z,7.12
2018-12-23T16:23:58.538Z,7.29
2018-12-23T16:26:33.368Z,7.25
2018-12-23T16:29:07.821Z,7.26
2018-12-23T16:31:43.288Z,7.33
2018-12-23T16:34:18.251Z,7.16
2018-12-23T16:36:52.623Z,7.33
2018-12-23T16:39:27.064Z,7.30
2018-12-23T16:42:05.568Z,7.38
2018-12-23T16:44:40.591Z,7.27
2018-12-23T16:47:14.898Z,7.20
2018-12-23T16:49:49.325Z,7.17
2018-12-23T16:52:23.908Z,7.15
2018-12-23T16:54:58.559Z,7.14
2018-12-23T16:57:33.060Z,7.14
2018-12-23T17:00:11.888Z,7.02
2018-12-23T17:02:46.615Z,6.95
2018-12-23T17:05:21.664Z,6.94
2018-12-23T17:07:56.330Z,7.00
2018-12-23T17:10:30.927Z,7.15
2018-12-23T17:13:06.202Z,7.11
2018-12-23T17:15:40.522Z,7.14
2018-12-23T17:18:16.412Z,7.13
2018-12-23T17:20:51.312Z,7.06
2018-12-23T17:23:27.018Z,7.21
2018-12-23T17:26:02.102Z,7.24
2018-12-23T17:28:36.846Z,7.22
2018-12-23T17:31:12.787Z,7.23
2018-12-23T17:33:47.754Z,7.37
2018-12-23T17:36:22.815Z,7.44
2018-12-23T17:38:57.321Z,7.49
2018-12-23T17:41:31.707Z,7.49
2018-12-23T17:44:06.434Z,7.48
2018-12-23T17:46:41.013Z,7.49
2018-12-23T17:49:15.790Z,7.53
2018-12-23T17:51:50.687Z,7.62
2018-12-23T17:54:25.476Z,7.65
2018-12-23T17:57:00.290Z,7.72
2018-12-23T17:59:34.583Z,7.76
2018-12-23T18:02:09.558Z,7.87
2018-12-23T18:04:43.965Z,7.88
2018-12-23T18:07:18.885Z,7.92
2018-12-23T18:09:53.574Z,8.00
2018-12-23T18:12:28.420Z,8.06
2018-12-23T18:15:04.513Z,8.12
2018-12-23T18:17:39.669Z,8.21
2018-12-23T18:20:14.690Z,8.21
2018-12-23T18:22:49.378Z,8.30
2018-12-23T18:25:24.200Z,8.38
2018-12-23T18:27:59.683Z,8.44
2018-12-23T18:30:34.795Z,8.48
2018-12-23T18:33:09.382Z,8.54
2018-12-23T18:35:44.088Z,8.58
2018-12-23T18:38:18.564Z,8.59
2018-12-23T18:40:53.003Z,8.68
2018-12-23T18:43:27.287Z,8.75
2018-12-23T18:46:02.665Z,8.84
2018-12-23T18:48:37.014Z,8.91
2018-12-23T18:51:11.595Z,8.91
2018-12-23T18:53:46.008Z,8.92
2018-12-23T18:56:26.987Z,8.94
2018-12-23T18:59:01.639Z,8.93
2018-12-23T19:01:38.291Z,9.01
2018-12-23T19:04:13.342Z,8.96
2018-12-23T19:06:48.132Z,9.01
2018-12-23T19:09:29.880Z,9.04
2018-12-23T19:14:18.573Z,9.15
2018-12-23T19:19:06.473Z,9.08
2018-12-23T19:21:51.903Z,9.16
2018-12-23T19:24:41.051Z,9.17
2018-12-23T19:27:26.888Z,9.29
2018-12-23T19:30:12.266Z,9.32
2018-12-23T19:33:14.438Z,9.33
2018-12-23T19:38:02.990Z,9.32
2018-12-23T19:41:17.303Z,9.44
2018-12-23T19:44:09.459Z,9.51
2018-12-23T19:47:11.142Z,9.54
2018-12-23T19:49:58.866Z,9.53
2018-12-23T19:52:44.787Z,9.59
2018-12-23T19:55:36.156Z,9.61
2018-12-23T19:58:24.482Z,9.63
2018-12-23T20:01:18.855Z,9.64
2018-12-23T20:04:13.371Z,9.69
2018-12-23T20:06:59.063Z,9.70
2018-12-23T20:11:49.679Z,9.69
2018-12-23T20:14:33.242Z,9.61
2018-12-23T20:21:28.738Z,9.71
2018-12-23T20:25:18.279Z,9.63
2018-12-23T20:30:07.319Z,9.66
2018-12-23T20:33:02.081Z,9.71
2018-12-23T20:38:59.150Z,9.85
2018-12-23T20:44:01.711Z,9.89
2018-12-23T20:49:46.094Z,9.96
2018-12-23T20:52:42.775Z,9.97
2018-12-23T20:55:30.242Z,10.02
2018-12-23T20:58:20.808Z,10.09
2018-12-23T21:02:12.671Z,10.12
2018-12-23T21:05:11.162Z,10.18
2018-12-23T21:08:04.448Z,10.21
2018-12-23T21:12:05.175Z,10.25
2018-12-23T21:15:33.231Z,10.16
2018-12-23T21:19:01.272Z,10.21
2018-12-23T21:22:16.407Z,10.25
2018-12-23T21:25:44.449Z,10.28
2018-12-23T21:29:12.258Z,10.23
2018-12-23T21:32:38.229Z,10.29
2018-12-23T21:36:06.557Z,10.29
2018-12-23T21:39:34.657Z,10.35
2018-12-23T21:43:02.724Z,10.45
2018-12-23T21:46:30.552Z,10.48
2018-12-23T21:49:58.390Z,10.50
2018-12-23T21:53:14.972Z,10.54
2018-12-23T21:56:38.275Z,10.54
2018-12-23T21:59:54.730Z,10.59
2018-12-23T22:03:25.565Z,10.53
2018-12-23T22:06:53.626Z,10.57
2018-12-23T22:11:33.067Z,10.57
2018-12-23T22:13:33.883Z,10.55
2018-12-23T22:16:25.249Z,10.58
2018-12-23T22:19:15.072Z,10.59
2018-12-23T22:22:04.538Z,10.66
2018-12-23T22:24:54.493Z,10.63
2018-12-23T22:27:44.481Z,10.70
2018-12-23T22:30:34.363Z,10.71
2018-12-23T22:33:23.887Z,10.70
2018-12-23T22:39:43.746Z,10.74
2018-12-23T22:42:33.562Z,10.73
2018-12-23T22:45:23.808Z,10.77
2018-12-23T22:48:13.281Z,10.76
2018-12-23T22:51:03.640Z,10.66
2018-12-23T22:53:53.135Z,10.66
2018-12-23T22:56:43.569Z,10.68
2018-12-23T22:59:34.558Z,10.75
2018-12-23T23:02:22.625Z,10.75
2018-12-23T23:05:12.328Z,10.74
2018-12-23T23:08:02.529Z,10.77
2018-12-23T23:10:51.994Z,10.78
2018-12-23T23:13:42.260Z,10.84
2018-12-23T23:16:31.710Z,10.87
2018-12-23T23:19:21.759Z,10.89
2018-12-23T23:22:14.442Z,10.93
2018-12-23T23:25:04.285Z,10.97
2018-12-23T23:28:35.641Z,10.92
2018-12-23T23:31:27.348Z,10.91
2018-12-23T23:34:17.082Z,10.93
2018-12-23T23:37:07.541Z,11.01
2018-12-23T23:39:58.586Z,11.01
2018-12-23T23:42:48.329Z,11.02
2018-12-23T23:45:39.374Z,11.00
2018-12-23T23:48:32.363Z,10.99
2018-12-23T23:51:21.915Z,11.07
2018-12-23T23:54:11.421Z,11.07
2018-12-23T23:57:20.273Z,11.06
